| time (UTC) | temp C | wind direction | speed KPH | gust KPH | rain 1hr cm | rain 24hr cm | rain mn cm | humidity % | barometer mb |
| 20260510083155 | 10 | 188 | 3.2 | 4.8 | 0.00 | 0.00 | 0.00 | 99 | 1011.3 |
| 20260510082651 | 10 | 178 | 3.2 | 4.8 | 0.00 | 0.00 | 0.00 | 99 | 1011.4 |
| 20260510082146 | 10 | 171 | 1.6 | 3.2 | 0.00 | 0.00 | 0.00 | 99 | 1011.5 |
| 20260510081642 | 10 | 229 | 3.2 | 4.8 | 0.00 | 0.00 | 0.00 | 99 | 1011.4 |
| 20260510081138 | 10 | 202 | 4.8 | 9.7 | 0.00 | 0.00 | 0.00 | 99 | 1011.1 |
| 20260510080637 | 10 | 177 | 3.2 | 4.8 | 0.00 | 0.00 | 0.00 | 99 | 1011.2 |
| 20260510080134 | 10 | 186 | 4.8 | 4.8 | 0.00 | 0.00 | 0.00 | 99 | 1011.0 |
| 20260510075631 | 10 | 219 | 3.2 | 4.8 | 0.00 | 0.00 | 0.00 | 99 | 1011.3 |
| 20260510075128 | 10 | 201 | 1.6 | 3.2 | 0.00 | 0.00 | 0.00 | 99 | 1011.4 |
| 20260510074625 | 10 | 196 | 8.0 | 8.0 | 0.00 | 0.00 | 0.00 | 99 | 1011.4 |
| 20260510074121 | 10 | 180 | 4.8 | 4.8 | 0.00 | 0.00 | 0.00 | 99 | 1011.3 |
| 20260510073617 | 10 | 211 | 1.6 | 3.2 | 0.00 | 0.00 | 0.00 | 99 | 1011.2 |
| 20260510073114 | 10 | 175 | 3.2 | 4.8 | 0.00 | 0.00 | 0.00 | 99 | 1011.2 |
| 20260510072611 | 10 | 185 | 4.8 | 4.8 | 0.00 | 0.00 | 0.00 | 99 | 1011.3 |
| 20260510072107 | 10 | 168 | 4.8 | 4.8 | 0.00 | 0.00 | 0.00 | 99 | 1011.5 |
| 20260510071603 | 10 | 186 | 3.2 | 3.2 | 0.00 | 0.00 | 0.00 | 99 | 1011.5 |
| 20260510071101 | 10 | 289 | 0.0 | 0.0 | 0.00 | 0.00 | 0.00 | 99 | 1011.4 |
| 20260510070557 | 10 | 5 | 3.2 | 4.8 | 0.00 | 0.00 | 0.00 | 99 | 1011.7 |
| 20260510070055 | 10 | 308 | 0.0 | 0.0 | 0.00 | 0.00 | 0.00 | 99 | 1011.7 |
| 20260510065551 | 10 | 312 | 0.0 | 0.0 | 0.00 | 0.00 | 0.00 | 99 | 1011.7 |
| 20260510065047 | 10 | 309 | 3.2 | 3.2 | 0.00 | 0.00 | 0.00 | 99 | 1011.4 |
| 20260510064543 | 10 | 9 | 8.0 | 9.7 | 0.00 | 0.00 | 0.00 | 99 | 1011.5 |
| 20260510064040 | 10 | 29 | 4.8 | 8.0 | 0.00 | 0.00 | 0.00 | 99 | 1011.8 |
| 20260510063537 | 10 | 305 | 4.8 | 8.0 | 0.00 | 0.00 | 0.00 | 99 | 1011.8 |
| 20260510063034 | 10 | 195 | 0.0 | 0.0 | 0.00 | 0.00 | 0.00 | 99 | 1011.0 |
| 20260510062530 | 10 | 206 | 0.0 | 0.0 | 0.00 | 0.00 | 0.00 | 99 | 1010.9 |
| 20260510062025 | 10 | 206 | 0.0 | 0.0 | 0.00 | 0.00 | 0.00 | 99 | 1011.0 |
| 20260510061522 | 10 | 223 | 0.0 | 0.0 | 0.00 | 0.00 | 0.00 | 99 | 1011.2 |
| 20260510061019 | 10 | 242 | 0.0 | 0.0 | 0.00 | 0.00 | 0.00 | 99 | 1011.2 |
| 20260510060515 | 10 | 85 | 0.0 | 0.0 | 0.00 | 0.00 | 0.00 | 99 | 1011.4 |
| 20260510060012 | 10 | 167 | 0.0 | 0.0 | 0.00 | 0.00 | 0.00 | 99 | 1011.2 |
| 20260510055507 | 10 | 49 | 1.6 | 3.2 | 0.00 | 0.00 | 0.00 | 99 | 1011.5 |
| 20260510055006 | 10 | 58 | 6.4 | 8.0 | 0.00 | 0.00 | 0.00 | 99 | 1011.4 |
| 20260510054501 | 10 | 63 | 1.6 | 3.2 | 0.00 | 0.00 | 0.00 | 99 | 1011.8 |
| 20260510053956 | 10 | 342 | 4.8 | 8.0 | 0.00 | 0.00 | 0.00 | 99 | 1011.6 |
| 20260510053451 | 10 | 66 | 4.8 | 4.8 | 0.00 | 0.00 | 0.00 | 99 | 1011.4 |
| 20260510052948 | 10 | 62 | 4.8 | 4.8 | 0.00 | 0.00 | 0.00 | 99 | 1011.2 |
| 20260510052444 | 10 | 326 | 0.0 | 0.0 | 0.00 | 0.00 | 0.00 | 99 | 1011.2 |
| 20260510051940 | 11 | 8 | 0.0 | 0.0 | 0.00 | 0.00 | 0.00 | 99 | 1011.0 |
| 20260510051437 | 11 | 169 | 1.6 | 4.8 | 0.00 | 0.00 | 0.00 | 99 | 1010.9 |
| 20260510050933 | 11 | 193 | 0.0 | 0.0 | 0.00 | 0.00 | 0.00 | 99 | 1010.9 |
| 20260510050430 | 11 | 197 | 1.6 | 3.2 | 0.00 | 0.00 | 0.00 | 99 | 1010.8 |
| 20260510045927 | 11 | 167 | 3.2 | 4.8 | 0.00 | 0.00 | 0.00 | 99 | 1010.9 |
| 20260510045425 | 11 | 173 | 3.2 | 4.8 | 0.00 | 0.00 | 0.00 | 99 | 1010.9 |
| 20260510044921 | 11 | 173 | 3.2 | 4.8 | 0.00 | 0.00 | 0.00 | 99 | 1010.7 |
| 20260510044418 | 11 | 128 | 3.2 | 4.8 | 0.00 | 0.00 | 0.00 | 99 | 1010.9 |
| 20260510043915 | 11 | 158 | 1.6 | 3.2 | 0.00 | 0.00 | 0.00 | 99 | 1010.8 |
| 20260510043411 | 11 | 166 | 4.8 | 4.8 | 0.00 | 0.00 | 0.00 | 98 | 1011.0 |
| 20260510042909 | 11 | 181 | 3.2 | 4.8 | 0.00 | 0.00 | 0.00 | 98 | 1011.2 |
| 20260510042405 | 11 | 161 | 3.2 | 8.0 | 0.00 | 0.00 | 0.00 | 98 | 1011.2 |
| 20260510041901 | 11 | 176 | 4.8 | 8.0 | 0.00 | 0.00 | 0.00 | 98 | 1011.0 |
| 20260510041358 | 11 | 174 | 3.2 | 4.8 | 0.00 | 0.00 | 0.00 | 98 | 1010.8 |
| 20260510040855 | 11 | 188 | 3.2 | 4.8 | 0.00 | 0.00 | 0.00 | 98 | 1011.0 |
| 20260510040352 | 11 | 226 | 3.2 | 4.8 | 0.00 | 0.00 | 0.00 | 98 | 1011.1 |
| 20260510035847 | 11 | 192 | 1.6 | 4.8 | 0.00 | 0.38 | 0.38 | 98 | 1011.0 |
| 20260510035343 | 11 | 226 | 1.6 | 3.2 | 0.00 | 0.38 | 0.38 | 98 | 1011.0 |
| 20260510034839 | 11 | 154 | 3.2 | 4.8 | 0.00 | 0.38 | 0.38 | 98 | 1011.0 |
| 20260510034337 | 11 | 155 | 3.2 | 4.8 | 0.00 | 0.38 | 0.38 | 97 | 1010.9 |
| 20260510033834 | 11 | 171 | 6.4 | 8.0 | 0.00 | 0.38 | 0.38 | 97 | 1011.1 |
| 20260510033330 | 11 | 181 | 1.6 | 4.8 | 0.00 | 0.38 | 0.38 | 97 | 1010.9 |
| 20260510032827 | 11 | 158 | 4.8 | 8.0 | 0.00 | 0.38 | 0.38 | 97 | 1011.0 |
| 20260510032324 | 11 | 223 | 3.2 | 4.8 | 0.00 | 0.38 | 0.38 | 96 | 1011.2 |
| 20260510031819 | 11 | 197 | 0.0 | 3.2 | 0.00 | 0.38 | 0.38 | 96 | 1011.0 |
| 20260510031315 | 11 | 174 | 1.6 | 3.2 | 0.00 | 0.38 | 0.38 | 96 | 1011.0 |
| 20260510030809 | 12 | 208 | 3.2 | 4.8 | 0.00 | 0.38 | 0.38 | 95 | 1011.0 |
| 20260510030306 | 11 | 200 | 0.0 | 3.2 | 0.00 | 0.38 | 0.38 | 95 | 1010.9 |
| 20260510025803 | 12 | 156 | 3.2 | 4.8 | 0.00 | 0.38 | 0.38 | 95 | 1011.0 |
| 20260510025301 | 12 | 178 | 1.6 | 3.2 | 0.00 | 0.38 | 0.38 | 95 | 1011.1 |
| 20260510024757 | 12 | 222 | 0.0 | 0.0 | 0.00 | 0.38 | 0.38 | 94 | 1011.0 |
| 20260510024254 | 12 | 203 | 0.0 | 0.0 | 0.00 | 0.38 | 0.38 | 93 | 1010.9 |
| 20260510023750 | 12 | 185 | 0.0 | 0.0 | 0.00 | 0.38 | 0.38 | 93 | 1011.0 |
| 20260510023247 | 12 | 188 | 3.2 | 3.2 | 0.00 | 0.38 | 0.38 | 93 | 1011.0 |
| 20260510022743 | 12 | 184 | 3.2 | 4.8 | 0.00 | 0.38 | 0.38 | 92 | 1010.9 |
| 20260510022238 | 12 | 160 | 1.6 | 3.2 | 0.00 | 0.38 | 0.38 | 92 | 1011.0 |
| 20260510021737 | 12 | 182 | 3.2 | 4.8 | 0.00 | 0.38 | 0.38 | 92 | 1010.9 |
| 20260510021236 | 12 | 196 | 1.6 | 3.2 | 0.00 | 0.38 | 0.38 | 92 | 1010.8 |
| 20260510020731 | 12 | 185 | 3.2 | 4.8 | 0.00 | 0.38 | 0.38 | 92 | 1010.8 |
| 20260510020226 | 12 | 218 | 1.6 | 3.2 | 0.00 | 0.38 | 0.38 | 92 | 1010.6 |
| 20260510015722 | 12 | 161 | 1.6 | 4.8 | 0.00 | 0.38 | 0.38 | 92 | 1010.7 |
| 20260510015218 | 12 | 234 | 3.2 | 4.8 | 0.00 | 0.38 | 0.38 | 92 | 1010.6 |
| 20260510014714 | 12 | 178 | 0.0 | 0.0 | 0.00 | 0.38 | 0.38 | 92 | 1010.6 |
| 20260510014211 | 12 | 176 | 3.2 | 3.2 | 0.00 | 0.38 | 0.38 | 92 | 1010.5 |
| 20260510013711 | 12 | 193 | 0.0 | 0.0 | 0.00 | 0.38 | 0.38 | 92 | 1010.3 |
| 20260510013208 | 12 | 197 | 0.0 | 0.0 | 0.00 | 0.38 | 0.38 | 92 | 1010.3 |
| 20260510012702 | 12 | 234 | 0.0 | 0.0 | 0.00 | 0.38 | 0.38 | 91 | 1010.3 |
| 20260510012157 | 13 | 191 | 0.0 | 0.0 | 0.00 | 0.38 | 0.38 | 89 | 1010.1 |
| 20260510011652 | 13 | 174 | 0.0 | 0.0 | 0.00 | 0.38 | 0.38 | 89 | 1010.1 |
| 20260510011148 | 13 | 163 | 3.2 | 4.8 | 0.00 | 0.38 | 0.38 | 88 | 1010.2 |
| 20260510010644 | 13 | 196 | 3.2 | 3.2 | 0.00 | 0.38 | 0.38 | 88 | 1010.2 |
| 20260510010142 | 13 | 154 | 0.0 | 0.0 | 0.00 | 0.38 | 0.38 | 89 | 1010.2 |
| 20260510005637 | 13 | 171 | 0.0 | 0.0 | 0.00 | 0.38 | 0.38 | 89 | 1010.1 |
| 20260510005135 | 13 | 168 | 1.6 | 3.2 | 0.00 | 0.38 | 0.38 | 90 | 1010.2 |
| 20260510004633 | 13 | 166 | 3.2 | 4.8 | 0.00 | 0.38 | 0.38 | 90 | 1010.2 |
| 20260510004131 | 13 | 201 | 0.0 | 0.0 | 0.00 | 0.38 | 0.38 | 91 | 1009.9 |
| 20260510003628 | 13 | 150 | 0.0 | 0.0 | 0.00 | 0.38 | 0.38 | 90 | 1010.1 |
| 20260510003123 | 13 | 232 | 0.0 | 0.0 | 0.00 | 0.38 | 0.38 | 89 | 1009.8 |
| 20260510002618 | 13 | 180 | 0.0 | 0.0 | 0.00 | 0.38 | 0.38 | 89 | 1009.8 |
| 20260510002115 | 14 | 183 | 0.0 | 0.0 | 0.00 | 0.38 | 0.38 | 88 | 1010.0 |
| 20260510001612 | 14 | 183 | 0.0 | 0.0 | 0.00 | 0.38 | 0.38 | 87 | 1010.0 |
| 20260510001111 | 15 | 173 | 0.0 | 0.0 | 0.00 | 0.38 | 0.38 | 86 | 1009.5 |
| 20260510000611 | 15 | 134 | 0.0 | 0.0 | 0.00 | 0.38 | 0.38 | 85 | 1009.7 |
| 20260510000108 | 15 | 228 | 0.0 | 0.0 | 0.00 | 0.38 | 0.38 | 85 | 1009.5 |
| 20260509235604 | 15 | 204 | 0.0 | 3.2 | 0.00 | 0.38 | 0.38 | 84 | 1009.6 |
| 20260509235101 | 15 | 137 | 3.2 | 4.8 | 0.00 | 0.38 | 0.38 | 84 | 1009.6 |
| 20260509234557 | 15 | 195 | 3.2 | 3.2 | 0.00 | 0.38 | 0.38 | 83 | 1009.8 |
| 20260509234055 | 15 | 171 | 1.6 | 3.2 | 0.00 | 0.38 | 0.38 | 82 | 1009.7 |
| 20260509233553 | 16 | 162 | 3.2 | 4.8 | 0.00 | 0.38 | 0.38 | 81 | 1009.4 |
| 20260509233050 | 16 | 172 | 1.6 | 3.2 | 0.00 | 0.38 | 0.38 | 81 | 1009.3 |
| 20260509232546 | 16 | 235 | 1.6 | 3.2 | 0.00 | 0.38 | 0.38 | 80 | 1009.4 |
| 20260509232043 | 16 | 157 | 3.2 | 4.8 | 0.00 | 0.38 | 0.38 | 80 | 1009.4 |
| 20260509231539 | 16 | 242 | 4.8 | 9.7 | 0.00 | 0.38 | 0.38 | 78 | 1009.4 |
| 20260509231037 | 16 | 198 | 3.2 | 4.8 | 0.00 | 0.38 | 0.38 | 79 | 1009.4 |
| 20260509230534 | 16 | 191 | 1.6 | 3.2 | 0.00 | 0.38 | 0.38 | 78 | 1009.5 |
| 20260509230031 | 16 | 156 | 6.4 | 9.7 | 0.00 | 0.38 | 0.38 | 78 | 1009.5 |
| 20260509225526 | 16 | 206 | 4.8 | 8.0 | 0.00 | 0.38 | 0.38 | 79 | 1009.5 |
| 20260509225022 | 16 | 185 | 3.2 | 4.8 | 0.00 | 0.38 | 0.38 | 79 | 1009.7 |
| 20260509224518 | 16 | 135 | 4.8 | 8.0 | 0.00 | 0.38 | 0.38 | 78 | 1009.7 |
| 20260509224015 | 16 | 198 | 4.8 | 8.0 | 0.00 | 0.38 | 0.38 | 78 | 1009.7 |
| 20260509223512 | 16 | 216 | 4.8 | 4.8 | 0.00 | 0.38 | 0.38 | 79 | 1009.6 |
| 20260509223010 | 16 | 174 | 4.8 | 4.8 | 0.00 | 0.38 | 0.38 | 78 | 1009.7 |
| 20260509222505 | 16 | 219 | 4.8 | 4.8 | 0.00 | 0.38 | 0.38 | 77 | 1009.4 |
| 20260509222001 | 16 | 208 | 3.2 | 4.8 | 0.00 | 0.38 | 0.38 | 78 | 1009.4 |
| 20260509221457 | 17 | 190 | 8.0 | 12.9 | 0.00 | 0.38 | 0.38 | 77 | 1009.4 |
| 20260509220953 | 16 | 166 | 3.2 | 4.8 | 0.00 | 0.38 | 0.38 | 78 | 1009.5 |
| 20260509220449 | 16 | 173 | 4.8 | 8.0 | 0.00 | 0.38 | 0.38 | 78 | 1009.6 |
| 20260509215945 | 16 | 253 | 0.0 | 3.2 | 0.00 | 0.38 | 0.38 | 78 | 1009.7 |
| 20260509215441 | 17 | 182 | 6.4 | 8.0 | 0.00 | 0.38 | 0.38 | 76 | 1009.7 |
| 20260509214939 | 17 | 148 | 0.0 | 0.0 | 0.00 | 0.38 | 0.38 | 76 | 1009.6 |
| 20260509214436 | 17 | 180 | 3.2 | 4.8 | 0.00 | 0.38 | 0.38 | 78 | 1009.7 |
| 20260509213932 | 17 | 223 | 0.0 | 3.2 | 0.00 | 0.38 | 0.38 | 77 | 1010.0 |
| 20260509213428 | 16 | 210 | 0.0 | 0.0 | 0.00 | 0.38 | 0.38 | 78 | 1010.0 |
| 20260509212926 | 17 | 155 | 1.6 | 3.2 | 0.00 | 0.38 | 0.38 | 77 | 1010.1 |
| 20260509212423 | 17 | 281 | 0.0 | 0.0 | 0.00 | 0.38 | 0.38 | 79 | 1010.0 |
| 20260509211919 | 16 | 190 | 0.0 | 0.0 | 0.00 | 0.38 | 0.38 | 79 | 1010.1 |
| 20260509211415 | 16 | 233 | 0.0 | 0.0 | 0.00 | 0.38 | 0.38 | 81 | 1010.2 |
| 20260509210911 | 16 | 245 | 0.0 | 0.0 | 0.00 | 0.38 | 0.38 | 81 | 1010.5 |
| 20260509210409 | 16 | 298 | 0.0 | 0.0 | 0.00 | 0.38 | 0.38 | 80 | 1010.4 |
| 20260509205904 | 16 | 273 | 0.0 | 0.0 | 0.00 | 0.38 | 0.38 | 79 | 1010.4 |
| 20260509205404 | 16 | 239 | 0.0 | 0.0 | 0.00 | 0.38 | 0.38 | 80 | 1010.4 |
| 20260509204900 | 16 | 26 | 0.0 | 3.2 | 0.00 | 0.38 | 0.38 | 82 | 1010.1 |
| 20260509204357 | 16 | 244 | 0.0 | 0.0 | 0.00 | 0.38 | 0.38 | 79 | 1010.0 |
| 20260509203853 | 16 | 157 | 0.0 | 0.0 | 0.00 | 0.38 | 0.38 | 80 | 1009.9 |
| 20260509203349 | 16 | 33 | 0.0 | 0.0 | 0.00 | 0.38 | 0.38 | 80 | 1009.8 |
| 20260509202847 | 16 | 138 | 3.2 | 3.2 | 0.00 | 0.38 | 0.38 | 80 | 1009.8 |
| 20260509202342 | 16 | 274 | 0.0 | 0.0 | 0.00 | 0.38 | 0.38 | 80 | 1010.1 |
| 20260509201837 | 16 | 258 | 0.0 | 0.0 | 0.00 | 0.38 | 0.38 | 81 | 1009.9 |
| 20260509201334 | 16 | 242 | 0.0 | 0.0 | 0.00 | 0.38 | 0.38 | 81 | 1009.9 |
| 20260509200830 | 16 | 110 | 0.0 | 0.0 | 0.00 | 0.38 | 0.38 | 80 | 1010.3 |
| 20260509200326 | 16 | 235 | 0.0 | 0.0 | 0.00 | 0.38 | 0.38 | 81 | 1010.1 |
| 20260509195823 | 16 | 209 | 4.8 | 4.8 | 0.00 | 0.38 | 0.38 | 80 | 1010.5 |
| 20260509195322 | 16 | 163 | 4.8 | 8.0 | 0.00 | 0.38 | 0.38 | 80 | 1010.5 |
| 20260509194822 | 16 | 260 | 0.0 | 0.0 | 0.00 | 0.38 | 0.38 | 79 | 1010.2 |
| 20260509194318 | 16 | 194 | 1.6 | 3.2 | 0.00 | 0.38 | 0.38 | 78 | 1010.5 |
| 20260509193815 | 16 | 154 | 4.8 | 8.0 | 0.00 | 0.38 | 0.38 | 78 | 1010.5 |
| 20260509193315 | 16 | 154 | 4.8 | 4.8 | 0.00 | 0.38 | 0.38 | 80 | 1010.5 |
| 20260509192811 | 16 | 191 | 8.0 | 9.7 | 0.00 | 0.38 | 0.38 | 79 | 1010.4 |
| 20260509192307 | 16 | 243 | 1.6 | 3.2 | 0.00 | 0.38 | 0.38 | 80 | 1010.6 |
| 20260509191803 | 16 | 284 | 1.6 | 3.2 | 0.00 | 0.38 | 0.38 | 80 | 1010.8 |
| 20260509191259 | 16 | 194 | 1.6 | 4.8 | 0.00 | 0.38 | 0.38 | 79 | 1010.6 |
| 20260509190755 | 16 | 237 | 3.2 | 4.8 | 0.00 | 0.38 | 0.38 | 78 | 1010.8 |
| 20260509190252 | 16 | 130 | 4.8 | 8.0 | 0.00 | 0.38 | 0.38 | 82 | 1010.8 |
| 20260509185749 | 16 | 167 | 0.0 | 0.0 | 0.00 | 0.38 | 0.38 | 82 | 1010.8 |
| 20260509185245 | 15 | 179 | 8.0 | 12.9 | 0.00 | 0.38 | 0.38 | 81 | 1011.0 |
| 20260509184743 | 15 | 138 | 4.8 | 4.8 | 0.00 | 0.38 | 0.38 | 83 | 1010.8 |
| 20260509184241 | 15 | 272 | 9.7 | 12.9 | 0.00 | 0.38 | 0.38 | 86 | 1011.1 |
| 20260509183737 | 15 | 116 | 3.2 | 4.8 | 0.00 | 0.38 | 0.38 | 87 | 1011.1 |
| 20260509183232 | 15 | 193 | 4.8 | 9.7 | 0.00 | 0.38 | 0.38 | 89 | 1011.2 |
| 20260509182728 | 14 | 207 | 8.0 | 9.7 | 0.00 | 0.38 | 0.38 | 90 | 1011.3 |
| 20260509182226 | 13 | 136 | 9.7 | 14.5 | 0.00 | 0.38 | 0.38 | 90 | 1011.3 |
| 20260509181723 | 13 | 185 | 4.8 | 8.0 | 0.00 | 0.38 | 0.38 | 92 | 1011.2 |
| 20260509181220 | 13 | 204 | 8.0 | 9.7 | 0.00 | 0.38 | 0.38 | 93 | 1011.4 |
| 20260509180717 | 13 | 188 | 4.8 | 8.0 | 0.00 | 0.38 | 0.38 | 93 | 1011.5 |
| 20260509180213 | 13 | 218 | 6.4 | 8.0 | 0.00 | 0.38 | 0.38 | 92 | 1011.7 |
| 20260509175710 | 12 | 168 | 4.8 | 4.8 | 0.00 | 0.38 | 0.38 | 93 | 1011.6 |
| 20260509175206 | 12 | 210 | 4.8 | 8.0 | 0.00 | 0.38 | 0.38 | 93 | 1011.7 |
| 20260509174702 | 12 | 180 | 3.2 | 8.0 | 0.00 | 0.38 | 0.38 | 93 | 1011.5 |
| 20260509174157 | 12 | 171 | 4.8 | 8.0 | 0.00 | 0.38 | 0.38 | 93 | 1011.6 |
| 20260509173654 | 12 | 187 | 4.8 | 9.7 | 0.00 | 0.38 | 0.38 | 94 | 1011.8 |
| 20260509173150 | 12 | 236 | 1.6 | 3.2 | 0.00 | 0.38 | 0.38 | 93 | 1011.6 |
| 20260509172646 | 12 | 187 | 1.6 | 3.2 | 0.00 | 0.38 | 0.38 | 92 | 1011.8 |
| 20260509172142 | 12 | 229 | 3.2 | 3.2 | 0.18 | 0.38 | 0.38 | 91 | 1011.9 |
| 20260509171638 | 12 | 221 | 3.2 | 3.2 | 0.18 | 0.38 | 0.38 | 92 | 1011.8 |
| 20260509171134 | 12 | 171 | 0.0 | 3.2 | 0.00 | 0.36 | 0.36 | 92 | 1012.1 |
| 20260509170631 | 12 | 139 | 3.2 | 4.8 | 0.00 | 0.36 | 0.36 | 91 | 1011.6 |
| 20260509170127 | 12 | 201 | 3.2 | 4.8 | 0.00 | 0.36 | 0.36 | 92 | 1011.6 |
| 20260509165626 | 12 | 179 | 4.8 | 4.8 | 0.00 | 0.36 | 0.36 | 91 | 1011.8 |
| 20260509165122 | 12 | 198 | 4.8 | 8.0 | 0.00 | 0.36 | 0.36 | 92 | 1011.6 |
| 20260509164617 | 12 | 189 | 3.2 | 4.8 | 0.00 | 0.36 | 0.36 | 92 | 1011.8 |
| 20260509164113 | 12 | 170 | 4.8 | 4.8 | 0.00 | 0.36 | 0.36 | 92 | 1012.0 |
| 20260509163612 | 12 | 208 | 3.2 | 4.8 | 0.00 | 0.36 | 0.36 | 92 | 1012.0 |
| 20260509163107 | 12 | 203 | 4.8 | 4.8 | 0.00 | 0.36 | 0.36 | 92 | 1012.1 |
| 20260509162604 | 12 | 217 | 6.4 | 9.7 | 0.00 | 0.36 | 0.36 | 93 | 1011.9 |
| 20260509162100 | 12 | 169 | 3.2 | 4.8 | 0.00 | 0.36 | 0.36 | 93 | 1012.1 |
| 20260509161557 | 12 | 221 | 0.0 | 0.0 | 0.00 | 0.36 | 0.36 | 96 | 1011.8 |
| 20260509161056 | 12 | 217 | 0.0 | 0.0 | 0.00 | 0.36 | 0.36 | 97 | 1011.8 |
| 20260509160553 | 11 | 265 | 0.0 | 0.0 | 0.00 | 0.36 | 0.36 | 98 | 1011.6 |
| 20260509160048 | 11 | 257 | 0.0 | 0.0 | 0.00 | 0.36 | 0.36 | 98 | 1011.7 |
| 20260509155545 | 11 | 206 | 0.0 | 0.0 | 0.00 | 0.36 | 0.36 | 97 | 1011.5 |
| 20260509155041 | 11 | 59 | 0.0 | 3.2 | 0.13 | 0.36 | 0.36 | 97 | 1011.6 |
| 20260509154537 | 11 | 51 | 4.8 | 8.0 | 0.30 | 0.36 | 0.36 | 97 | 1011.7 |
| 20260509154035 | 11 | 60 | 1.6 | 3.2 | 0.48 | 0.33 | 0.33 | 96 | 1012.1 |
| 20260509153532 | 11 | 59 | 0.0 | 0.0 | 0.61 | 0.30 | 0.30 | 96 | 1012.0 |
| 20260509153029 | 12 | 102 | 0.0 | 0.0 | 0.66 | 0.28 | 0.28 | 95 | 1012.4 |
| 20260509152524 | 12 | 326 | 0.0 | 0.0 | 0.48 | 0.20 | 0.20 | 94 | 1012.6 |
| 20260509152021 | 12 | 324 | 3.2 | 3.2 | 0.43 | 0.18 | 0.18 | 93 | 1012.6 |
| 20260509151518 | 12 | 243 | 0.0 | 0.0 | 0.30 | 0.13 | 0.13 | 91 | 1012.3 |
| 20260509151016 | 12 | 72 | 0.0 | 0.0 | 0.30 | 0.10 | 0.10 | 89 | 1012.3 |
| 20260509150513 | 12 | 146 | 0.0 | 0.0 | 0.13 | 0.08 | 0.08 | 89 | 1012.4 |
| 20260509150012 | 12 | 242 | 0.0 | 0.0 | 0.18 | 0.05 | 0.05 | 88 | 1012.3 |
| 20260509145507 | 12 | 224 | 3.2 | 3.2 | 0.18 | 0.05 | 0.05 | 87 | 1012.4 |
| 20260509145002 | 12 | 204 | 1.6 | 3.2 | 0.00 | 0.03 | 0.03 | 85 | 1012.6 |
| 20260509144459 | 13 | 146 | 1.6 | 3.2 | 0.13 | 0.03 | 0.03 | 84 | 1012.6 |
| 20260509143956 | 13 | 271 | 1.6 | 3.2 | 0.13 | 0.03 | 0.03 | 80 | 1012.4 |
| 20260509143453 | 13 | 204 | 3.2 | 4.8 | 0.00 | 0.00 | 0.00 | 80 | 1012.6 |
| 20260509142950 | 13 | 247 | 3.2 | 4.8 | 0.00 | 0.00 | 0.00 | 79 | 1012.5 |
| 20260509142446 | 13 | 275 | 3.2 | 4.8 | 0.00 | 0.00 | 0.00 | 76 | 1012.3 |
| 20260509141942 | 13 | 272 | 3.2 | 3.2 | 0.00 | 0.00 | 0.00 | 76 | 1012.4 |
| 20260509141438 | 13 | 242 | 1.6 | 3.2 | 0.00 | 0.00 | 0.00 | 74 | 1012.2 |
| 20260509140935 | 13 | 220 | 3.2 | 4.8 | 0.00 | 0.00 | 0.00 | 75 | 1012.0 |
| 20260509140431 | 13 | 298 | 1.6 | 3.2 | 0.00 | 0.00 | 0.00 | 74 | 1011.9 |
| 20260509135930 | 13 | 29 | 4.8 | 9.7 | 0.00 | 0.00 | 0.00 | 75 | 1012.1 |
| 20260509135427 | 13 | 353 | 6.4 | 9.7 | 0.00 | 0.00 | 0.00 | 74 | 1011.7 |
| 20260509134925 | 13 | 255 | 0.0 | 0.0 | 0.00 | 0.00 | 0.00 | 76 | 1011.9 |
| 20260509134422 | 13 | 351 | 4.8 | 8.0 | 0.00 | 0.00 | 0.00 | 75 | 1012.3 |
| 20260509133919 | 13 | 235 | 0.0 | 0.0 | 0.00 | 0.00 | 0.00 | 76 | 1011.9 |
| 20260509133415 | 13 | 244 | 4.8 | 8.0 | 0.00 | 0.00 | 0.00 | 77 | 1012.2 |
| 20260509132914 | 13 | 239 | 0.0 | 0.0 | 0.00 | 0.00 | 0.00 | 78 | 1011.6 |
| 20260509132412 | 13 | 201 | 0.0 | 0.0 | 0.00 | 0.00 | 0.00 | 79 | 1011.6 |
| 20260509131908 | 13 | 213 | 0.0 | 0.0 | 0.00 | 0.00 | 0.00 | 80 | 1011.8 |
| 20260509131405 | 12 | 197 | 4.8 | 4.8 | 0.00 | 0.00 | 0.00 | 80 | 1011.8 |
| 20260509130902 | 12 | 187 | 0.0 | 0.0 | 0.00 | 0.00 | 0.00 | 79 | 1011.6 |
| 20260509130357 | 12 | 151 | 0.0 | 0.0 | 0.00 | 0.00 | 0.00 | 80 | 1011.8 |
| 20260509125855 | 12 | 173 | 0.0 | 0.0 | 0.00 | 0.00 | 0.00 | 81 | 1011.8 |
| 20260509125351 | 12 | 124 | 1.6 | 3.2 | 0.00 | 0.00 | 0.00 | 82 | 1011.7 |
| 20260509124847 | 12 | 184 | 1.6 | 3.2 | 0.00 | 0.00 | 0.00 | 82 | 1011.3 |
| 20260509124344 | 12 | 219 | 1.6 | 3.2 | 0.00 | 0.00 | 0.00 | 82 | 1011.5 |
| 20260509123842 | 12 | 190 | 1.6 | 3.2 | 0.00 | 0.00 | 0.00 | 81 | 1011.9 |
| 20260509123339 | 12 | 202 | 4.8 | 8.0 | 0.00 | 0.00 | 0.00 | 83 | 1011.9 |
| 20260509122834 | 12 | 183 | 4.8 | 8.0 | 0.00 | 0.00 | 0.00 | 82 | 1011.8 |
| 20260509122332 | 12 | 235 | 0.0 | 3.2 | 0.00 | 0.00 | 0.00 | 83 | 1011.7 |
| 20260509121829 | 12 | 183 | 0.0 | 0.0 | 0.00 | 0.00 | 0.00 | 83 | 1011.5 |
| 20260509121326 | 12 | 177 | 1.6 | 3.2 | 0.00 | 0.00 | 0.00 | 84 | 1011.8 |
| 20260509120824 | 12 | 217 | 6.4 | 8.0 | 0.00 | 0.00 | 0.00 | 84 | 1011.8 |
| 20260509120322 | 12 | 145 | 1.6 | 3.2 | 0.00 | 0.00 | 0.00 | 85 | 1011.4 |
| 20260509115820 | 12 | 259 | 3.2 | 4.8 | 0.00 | 0.00 | 0.00 | 84 | 1011.6 |
| 20260509115316 | 11 | 221 | 0.0 | 0.0 | 0.00 | 0.00 | 0.00 | 85 | 1011.2 |
| 20260509114814 | 11 | 143 | 1.6 | 3.2 | 0.00 | 0.00 | 0.00 | 85 | 1011.1 |
| 20260509114313 | 11 | 237 | 0.0 | 0.0 | 0.00 | 0.00 | 0.00 | 86 | 1011.3 |
| 20260509113812 | 11 | 180 | 0.0 | 0.0 | 0.00 | 0.00 | 0.00 | 87 | 1011.2 |
| 20260509113308 | 11 | 182 | 1.6 | 3.2 | 0.00 | 0.00 | 0.00 | 88 | 1011.3 |
| 20260509112805 | 11 | 159 | 1.6 | 3.2 | 0.00 | 0.00 | 0.00 | 86 | 1011.0 |
| 20260509112306 | 11 | 275 | 0.0 | 0.0 | 0.00 | 0.00 | 0.00 | 86 | 1011.3 |
| 20260509111759 | 11 | 209 | 0.0 | 0.0 | 0.00 | 0.00 | 0.00 | 85 | 1011.3 |
| 20260509111256 | 11 | 234 | 0.0 | 0.0 | 0.00 | 0.00 | 0.00 | 86 | 1011.1 |
| 20260509110753 | 11 | 144 | 0.0 | 0.0 | 0.00 | 0.00 | 0.00 | 86 | 1011.0 |
| 20260509110249 | 11 | 202 | 0.0 | 0.0 | 0.00 | 0.00 | 0.00 | 87 | 1010.8 |
| 20260509105748 | 11 | 199 | 0.0 | 0.0 | 0.00 | 0.00 | 0.00 | 87 | 1011.0 |
| 20260509105245 | 11 | 156 | 1.6 | 3.2 | 0.00 | 0.00 | 0.00 | 87 | 1011.0 |
| 20260509104742 | 11 | 208 | 0.0 | 0.0 | 0.00 | 0.00 | 0.00 | 87 | 1010.9 |
| 20260509104239 | 11 | 186 | 3.2 | 3.2 | 0.00 | 0.00 | 0.00 | 87 | 1011.1 |
| 20260509103737 | 11 | 141 | 3.2 | 4.8 | 0.00 | 0.00 | 0.00 | 86 | 1011.1 |
| 20260509103234 | 11 | 200 | 0.0 | 0.0 | 0.00 | 0.00 | 0.00 | 87 | 1010.9 |
| 20260509102732 | 11 | 139 | 6.4 | 8.0 | 0.00 | 0.00 | 0.00 | 87 | 1010.9 |
| 20260509102229 | 11 | 186 | 4.8 | 8.0 | 0.00 | 0.00 | 0.00 | 86 | 1011.0 |
| 20260509101725 | 11 | 221 | 0.0 | 3.2 | 0.00 | 0.00 | 0.00 | 86 | 1010.8 |
| 20260509101221 | 11 | 202 | 0.0 | 0.0 | 0.00 | 0.00 | 0.00 | 87 | 1010.8 |
| 20260509100719 | 11 | 210 | 0.0 | 3.2 | 0.00 | 0.00 | 0.00 | 88 | 1010.7 |
| 20260509100216 | 11 | 227 | 0.0 | 0.0 | 0.00 | 0.00 | 0.00 | 88 | 1010.9 |
| 20260509095713 | 11 | 207 | 1.6 | 3.2 | 0.00 | 0.00 | 0.00 | 87 | 1010.9 |
| 20260509095210 | 11 | 237 | 0.0 | 3.2 | 0.00 | 0.00 | 0.00 | 86 | 1010.8 |
| 20260509094707 | 11 | 216 | 0.0 | 0.0 | 0.00 | 0.00 | 0.00 | 86 | 1010.6 |
| 20260509094204 | 11 | 154 | 0.0 | 0.0 | 0.00 | 0.00 | 0.00 | 87 | 1010.8 |
| 20260509093702 | 11 | 193 | 1.6 | 4.8 | 0.00 | 0.00 | 0.00 | 87 | 1010.8 |
| 20260509093159 | 11 | 149 | 0.0 | 0.0 | 0.00 | 0.00 | 0.00 | 87 | 1011.0 |
| 20260509092657 | 11 | 140 | 0.0 | 3.2 | 0.00 | 0.00 | 0.00 | 87 | 1010.9 |
| 20260509092155 | 11 | 178 | 1.6 | 3.2 | 0.00 | 0.00 | 0.00 | 87 | 1011.0 |
| 20260509091653 | 11 | 185 | 1.6 | 3.2 | 0.00 | 0.00 | 0.00 | 87 | 1011.2 |
| 20260509091148 | 11 | 178 | 3.2 | 4.8 | 0.00 | 0.00 | 0.00 | 87 | 1011.0 |
| 20260509090646 | 11 | 162 | 3.2 | 4.8 | 0.00 | 0.00 | 0.00 | 87 | 1011.1 |
| 20260509090143 | 11 | 152 | 3.2 | 4.8 | 0.00 | 0.00 | 0.00 | 87 | 1011.3 |
| 20260509085641 | 11 | 174 | 4.8 | 8.0 | 0.00 | 0.00 | 0.00 | 87 | 1011.1 |
| 20260509085137 | 11 | 240 | 4.8 | 8.0 | 0.00 | 0.00 | 0.00 | 86 | 1011.0 |
| 20260509084634 | 11 | 154 | 3.2 | 4.8 | 0.00 | 0.00 | 0.00 | 86 | 1011.2 |
| 20260509084131 | 11 | 219 | 3.2 | 4.8 | 0.00 | 0.00 | 0.00 | 86 | 1011.1 |
| 20260509083629 | 11 | 202 | 1.6 | 3.2 | 0.00 | 0.00 | 0.00 | 85 | 1011.2 |